Costa Serena — ICAZ — position and weather

sailwx.info

Track history (hours):
 
Tides and Currents Weather Stations Pressure Air Temp Water Temp Dewpoint Dewpoint Depression Visibility Wind Speed Wind Dir Waves Ship Positions

Costa Serena

Last reported at 2018-Sep-18 13:08 UTC. Time now 2018-Sep-19 03:18 UTC.
Position N 31°06' E 122°24'.

Length 290 m; draft 8.2 m.

Type: Ship. MMSI: 247187600.

Date/timePositionNaut miles runAvg speedWind from/ knotsBaromVisibWave heightAir tempDewpointWater temp
2018-Sep-18 13:08N 31°06' E 122°24'613.5
2018-Sep-18 12:40N 31°07' E 122°16'1412.5
2018-Sep-18 11:33N 31°14' E 122°02'612.8
2018-Sep-18 11:04N 31°16' E 121°55'112.5
2018-Sep-18 11:02N 31°16' E 121°55'013.2
2018-Sep-18 11:00N 31°16' E 121°54'612.6
2018-Sep-18 10:30N 31°18' E 121°47'3 0.2
2018-Sep-17 22:03N 31°19' E 121°45'110.9
2018-Sep-17 21:59N 31°19' E 121°45'611.0
2018-Sep-17 21:29N 31°16' E 121°51'511.0
2018-Sep-17 21:01N 31°15' E 121°57'012.5
2018-Sep-17 21:00N 31°15' E 121°57'510.8
2018-Sep-17 20:30N 31°14' E 122°03'510.6
2018-Sep-17 20:02N 31°12' E 122°09'012.6
2018-Sep-17 20:00N 31°12' E 122°09'611.4
2018-Sep-17 19:30N 31°09' E 122°14'511.2
2018-Sep-17 19:03N 31°06' E 122°20'112.3
2018-Sep-17 19:00N 31°06' E 122°20'611.7
2018-Sep-17 18:30N 31°07' E 122°27'510.2
2018-Sep-17 18:04N 31°08' E 122°32'112.5
2018-Sep-17 17:57N 31°07' E 122°34'410.2
2018-Sep-17 17:31N 31°07' E 122°39'815.7
2018-Sep-17 17:00N 31°07' E 122°49'  
2018-Sep-13 12:10N 31°05' E 122°25'1011.2
2018-Sep-13 11:16N 31°09' E 122°14'615.0
2018-Sep-13 10:50N 31°13' E 122°08'514.5
2018-Sep-13 10:30N 31°14' E 122°02'714.7
2018-Sep-13 10:02N 31°16' E 121°54'114.8
2018-Sep-13 10:00N 31°16' E 121°54'9 0.8
2018-Sep-12 22:05N 31°19' E 121°44'111.8
2018-Sep-12 21:59N 31°19' E 121°45'611.6
2018-Sep-12 21:29N 31°16' E 121°51'511.3
2018-Sep-12 21:03N 31°15' E 121°57'110.5
2018-Sep-12 21:00N 31°15' E 121°57'611.1
2018-Sep-12 20:30N 31°14' E 122°04'4 9.7
2018-Sep-12 20:03N 31°12' E 122°09'111.4
2018-Sep-12 20:00N 31°12' E 122°09'611.8
2018-Sep-12 19:30N 31°08' E 122°15'512.3
2018-Sep-12 19:03N 31°06' E 122°20'111.9
2018-Sep-12 19:00N 31°06' E 122°21'5 9.5
2018-Sep-12 18:28N 31°07' E 122°27'  
Track history (hours):
 
Tides and Currents Weather Stations Pressure Air Temp Water Temp Dewpoint Dewpoint Depression Visibility Wind Speed Wind Dir Waves Ship Positions

Costa Serena

Last reported at 2018-Sep-18 13:08 UTC. Time now 2018-Sep-19 03:18 UTC.
Position N 31°06' E 122°24'.

Length 290 m; draft 8.2 m.

Type: Ship. MMSI: 247187600.

Date/timePositionNaut miles runAvg speedWind from/ knotsBaromVisibWave heightAir tempDewpointWater temp
2018-Sep-18 13:08N 31°06' E 122°24'613.5
2018-Sep-18 12:40N 31°07' E 122°16'1412.5
2018-Sep-18 11:33N 31°14' E 122°02'612.8
2018-Sep-18 11:04N 31°16' E 121°55'112.5
2018-Sep-18 11:02N 31°16' E 121°55'013.2
2018-Sep-18 11:00N 31°16' E 121°54'612.6
2018-Sep-18 10:30N 31°18' E 121°47'3 0.2
2018-Sep-17 22:03N 31°19' E 121°45'110.9
2018-Sep-17 21:59N 31°19' E 121°45'611.0
2018-Sep-17 21:29N 31°16' E 121°51'511.0
2018-Sep-17 21:01N 31°15' E 121°57'012.5
2018-Sep-17 21:00N 31°15' E 121°57'510.8
2018-Sep-17 20:30N 31°14' E 122°03'510.6
2018-Sep-17 20:02N 31°12' E 122°09'012.6
2018-Sep-17 20:00N 31°12' E 122°09'611.4
2018-Sep-17 19:30N 31°09' E 122°14'511.2
2018-Sep-17 19:03N 31°06' E 122°20'112.3
2018-Sep-17 19:00N 31°06' E 122°20'611.7
2018-Sep-17 18:30N 31°07' E 122°27'510.2
2018-Sep-17 18:04N 31°08' E 122°32'112.5
2018-Sep-17 17:57N 31°07' E 122°34'410.2
2018-Sep-17 17:31N 31°07' E 122°39'815.7
2018-Sep-17 17:00N 31°07' E 122°49'  
2018-Sep-13 12:10N 31°05' E 122°25'1011.2
2018-Sep-13 11:16N 31°09' E 122°14'615.0
2018-Sep-13 10:50N 31°13' E 122°08'514.5
2018-Sep-13 10:30N 31°14' E 122°02'714.7
2018-Sep-13 10:02N 31°16' E 121°54'114.8
2018-Sep-13 10:00N 31°16' E 121°54'9 0.8
2018-Sep-12 22:05N 31°19' E 121°44'111.8
2018-Sep-12 21:59N 31°19' E 121°45'611.6
2018-Sep-12 21:29N 31°16' E 121°51'511.3
2018-Sep-12 21:03N 31°15' E 121°57'110.5
2018-Sep-12 21:00N 31°15' E 121°57'611.1
2018-Sep-12 20:30N 31°14' E 122°04'4 9.7
2018-Sep-12 20:03N 31°12' E 122°09'111.4
2018-Sep-12 20:00N 31°12' E 122°09'611.8
2018-Sep-12 19:30N 31°08' E 122°15'512.3
2018-Sep-12 19:03N 31°06' E 122°20'111.9
2018-Sep-12 19:00N 31°06' E 122°21'5 9.5
2018-Sep-12 18:28N 31°07' E 122°27'  

Dump ship's entire track history